Impacts METAR Board
IDs:

KSTL - St Louis/Lambert Int, MO, US

Updated at: 0200 UTC 16 Oct 2018
Potential Impact None Slight Moderate High
Time 15/14Z 15/15Z 15/16Z 15/17Z 15/18Z 15/19Z 15/20Z 15/21Z 15/22Z 15/23Z 16/00Z 16/01Z 16/02Z
Temp39 41 43 45 45 45 48 48 49 48 45 43 42
Dewpt36 35 34 34 33 32 33 32 33 33 34 34 35
Altim30.29 30.30 30.32 30.32 30.33 30.32 30.32 30.32 30.32 30.32 30.32 30.32 30.32
VIS10 10 10 10 10 10 10 10 10 10 10 10 10
CIG12 21 22 24 130 130 200 250 250 250 -- 250 250
CoverOVCBKNBKNBKNBKNBKNBKNBKNBKNBKNSCTBKNBKN
FltCatMVFRMVFRMVFRMVFRVFRVFRVFRVFRVFRVFRVFRVFRVFR
WX--------------------------
WDir320330340350320350330320310320360340320
WSpd11 9 9 12 10 10 9 9 7 5 3 4 3
WGst-- -- 19 20 -- -- -- -- -- -- -- -- --
Raw hourly METARs
KSTL 151351Z 32011KT 10SM OVC012 04/02 A3029 RMK AO2 SLP259 T00390022
KSTL 151451Z 33009KT 10SM BKN021 BKN065 BKN250 05/02 A3030 RMK AO2 SLP264 T00500017 51028
KSTL 151551Z 34009G19KT 10SM BKN022 BKN250 06/01 A3032 RMK AO2 SLP270 T00610011
KSTL 151651Z 35012G20KT 10SM BKN024 BKN070 BKN250 07/01 A3032 RMK AO2 SLP268 T00720011
KSTL 151804Z 32010KT 10SM SCT026 BKN130 BKN250 07/01 A3033 RMK AO2 T00720006
KSTL 151851Z 35010KT 10SM FEW029 BKN130 BKN250 07/00 A3032 RMK AO2 SLPNO T00720000
KSTL 151951Z 33009KT 10SM FEW030 FEW130 BKN200 BKN250 09/01 A3032 RMK AO2 SLP269 T00890006
KSTL 152051Z 32009KT 10SM FEW032 FEW150 BKN250 09/00 A3032 RMK AO2 SLP270 T00890000 56003
KSTL 152151Z 31007KT 10SM FEW150 BKN250 09/01 A3032 RMK AO2 SLP272 T00940006
KSTL 152251Z 32005KT 10SM BKN250 09/01 A3032 RMK AO2 SLP272 T00890006
KSTL 152351Z 36003KT 10SM SCT250 07/01 A3032 RMK AO2 SLP272 T00720011 10094 20067 58000
KSTL 160051Z 34004KT 10SM BKN250 06/01 A3032 RMK AO2 SLP275 T00610011
KSTL 160151Z 32003KT 10SM BKN250 06/02 A3032 RMK AO2 SLP275 T00560017



Page loaded:  02:22 UTC  |   07:22 PM Pacific  |   08:22 PM Mountain  |   09:22 PM Central  |   10:22 PM Eastern

 

ADVISORIES

FORECASTS

FORECASTS

OBSERVATIONS

USER TOOLS

ABOUT US